createdAt,value
2016-05-26T00:00:51.184Z,1012.57
2016-05-26T00:01:51.123Z,1012.54
2016-05-26T00:02:54.423Z,1012.56
2016-05-26T00:03:54.034Z,1012.55
2016-05-26T00:04:54.210Z,1012.58
2016-05-26T00:05:50.931Z,1012.54
2016-05-26T00:06:50.887Z,1012.53
2016-05-26T00:07:50.842Z,1012.5
2016-05-26T00:08:53.798Z,1012.49
2016-05-26T00:09:50.942Z,1012.49
2016-05-26T00:10:50.694Z,1012.51
2016-05-26T00:11:50.650Z,1012.51
2016-05-26T00:12:50.605Z,1012.5
2016-05-26T00:13:50.546Z,1012.51
2016-05-26T00:14:50.503Z,1012.52
2016-05-26T00:15:50.474Z,1012.56
2016-05-26T00:16:50.414Z,1012.55
2016-05-26T00:17:50.510Z,1012.56
2016-05-26T00:18:50.310Z,1012.5
2016-05-26T00:19:50.266Z,1012.5
2016-05-26T00:20:53.238Z,1012.51
2016-05-26T00:21:53.177Z,1012.5
2016-05-26T00:22:53.133Z,1012.52
2016-05-26T00:23:50.074Z,1012.53
2016-05-26T00:24:50.013Z,1012.51
2016-05-26T00:25:49.969Z,1012.53
2016-05-26T00:26:50.128Z,1012.51
2016-05-26T00:27:52.881Z,1012.5
2016-05-26T00:28:52.837Z,1012.49
2016-05-26T00:29:49.776Z,1012.54
2016-05-26T00:30:52.748Z,1012.5
2016-05-26T00:31:49.688Z,1012.52
2016-05-26T00:32:49.628Z,1012.48
2016-05-26T00:33:58.587Z,1012.48
2016-05-26T00:34:52.540Z,1012.5
2016-05-26T00:35:52.496Z,1012.51
2016-05-26T00:36:49.437Z,1012.51
2016-05-26T00:37:49.596Z,1012.52
2016-05-26T00:38:49.332Z,1012.47
2016-05-26T00:39:49.289Z,1012.48
2016-05-26T00:40:49.259Z,1012.5
2016-05-26T00:41:52.200Z,1012.49
2016-05-26T00:42:52.156Z,1012.52
2016-05-26T00:43:49.095Z,1012.49
2016-05-26T00:44:49.052Z,1012.48
2016-05-26T00:45:49.007Z,1012.51
2016-05-26T00:46:48.963Z,1012.53
2016-05-26T00:47:57.938Z,1012.51
2016-05-26T00:48:51.859Z,1012.48
2016-05-26T00:49:51.815Z,1012.5
2016-05-26T00:50:48.755Z,1012.53
2016-05-26T00:51:48.711Z,1012.52
2016-05-26T00:52:51.666Z,1012.54
2016-05-26T00:53:51.622Z,1012.52
2016-05-26T00:54:48.563Z,1012.49
2016-05-26T00:55:51.518Z,1012.5
2016-05-26T00:56:48.474Z,1012.49
2016-05-26T00:57:48.430Z,1012.48
2016-05-26T00:58:48.371Z,1012.49
2016-05-26T00:59:48.326Z,1012.48
2016-05-26T01:00:48.485Z,1012.49
2016-05-26T01:01:48.223Z,1012.5
2016-05-26T01:02:48.178Z,1012.49
2016-05-26T01:03:48.118Z,1012.5
2016-05-26T01:04:48.074Z,1012.48
2016-05-26T01:05:51.046Z,1012.48
2016-05-26T01:06:50.986Z,1012.45
2016-05-26T01:07:50.942Z,1012.42
2016-05-26T01:08:47.881Z,1012.42
2016-05-26T01:09:47.837Z,1012.46
2016-05-26T01:10:47.793Z,1012.43
2016-05-26T01:11:50.733Z,1012.48
2016-05-26T01:12:50.690Z,1012.47
2016-05-26T01:13:50.661Z,1012.49
2016-05-26T01:14:47.585Z,1012.49
2016-05-26T01:15:47.541Z,1012.46
2016-05-26T01:16:47.497Z,1012.48
2016-05-26T01:17:47.453Z,1012.48
2016-05-26T01:18:50.424Z,1012.45
2016-05-26T01:19:47.349Z,1012.46
2016-05-26T01:20:47.305Z,1012.46
2016-05-26T01:21:47.464Z,1012.46
2016-05-26T01:22:47.200Z,1012.44
2016-05-26T01:23:47.156Z,1012.47
2016-05-26T01:24:47.113Z,1012.43
2016-05-26T01:25:50.083Z,1012.44
2016-05-26T01:26:47.008Z,1012.44
2016-05-26T01:27:46.963Z,1012.46
2016-05-26T01:28:46.904Z,1012.44
2016-05-26T01:29:46.860Z,1012.45
2016-05-26T01:30:46.815Z,1012.41
2016-05-26T01:31:49.788Z,1012.45
2016-05-26T01:32:46.712Z,1012.46
2016-05-26T01:33:46.668Z,1012.45
2016-05-26T01:34:46.623Z,1012.45
2016-05-26T01:35:46.579Z,1012.47
2016-05-26T01:36:49.535Z,1012.46
2016-05-26T01:37:49.476Z,1012.47
2016-05-26T01:38:46.432Z,1012.45
2016-05-26T01:39:46.387Z,1012.45
2016-05-26T01:40:46.328Z,1012.49
2016-05-26T01:41:46.283Z,1012.49
2016-05-26T01:42:46.239Z,1012.49
2016-05-26T01:43:46.179Z,1012.46
2016-05-26T01:44:46.134Z,1012.5
2016-05-26T01:45:46.075Z,1012.46
2016-05-26T01:46:46.030Z,1012.46
2016-05-26T01:47:46.892Z,1012.46
2016-05-26T01:48:45.942Z,1012.49
2016-05-26T01:49:45.944Z,1012.51
2016-05-26T01:50:45.838Z,1012.48
2016-05-26T01:51:49.013Z,1012.51
2016-05-26T01:52:45.735Z,1012.58
2016-05-26T01:53:45.691Z,1012.56
2016-05-26T01:54:45.646Z,1012.54
2016-05-26T01:55:48.602Z,1012.57
2016-05-26T01:56:45.542Z,1012.57
2016-05-26T01:57:45.499Z,1012.58
2016-05-26T01:58:45.547Z,1012.55
2016-05-26T01:59:45.394Z,1012.51
2016-05-26T02:00:45.349Z,1012.52
2016-05-26T02:01:48.321Z,1012.51
2016-05-26T02:02:45.246Z,1012.51
2016-05-26T02:03:45.404Z,1012.52
2016-05-26T02:04:45.157Z,1012.54
2016-05-26T02:05:45.097Z,1012.54
2016-05-26T02:06:48.054Z,1012.54
2016-05-26T02:07:45.009Z,1012.57
2016-05-26T02:08:47.965Z,1012.58
2016-05-26T02:09:44.905Z,1012.59
2016-05-26T02:10:45.064Z,1012.59
2016-05-26T02:11:44.817Z,1012.6
2016-05-26T02:12:44.756Z,1012.58
2016-05-26T02:13:44.713Z,1012.59
2016-05-26T02:14:44.669Z,1012.56
2016-05-26T02:15:44.608Z,1012.58
2016-05-26T02:16:44.564Z,1012.62
2016-05-26T02:17:44.520Z,1012.64
2016-05-26T02:18:47.476Z,1012.57
2016-05-26T02:19:47.417Z,1012.57
2016-05-26T02:20:44.372Z,1012.6
2016-05-26T02:21:44.313Z,1012.57
2016-05-26T02:22:44.269Z,1012.54
2016-05-26T02:23:44.224Z,1012.54
2016-05-26T02:24:44.164Z,1012.56
2016-05-26T02:25:47.135Z,1012.52
2016-05-26T02:26:44.076Z,1012.5
2016-05-26T02:27:44.016Z,1012.52
2016-05-26T02:28:43.971Z,1012.51
2016-05-26T02:29:46.943Z,1012.5
2016-05-26T02:30:43.883Z,1012.55
2016-05-26T02:31:43.823Z,1012.5
2016-05-26T02:32:44.123Z,1012.53
2016-05-26T02:33:43.720Z,1012.55
2016-05-26T02:34:43.676Z,1012.55
2016-05-26T02:35:46.632Z,1012.54
2016-05-26T02:36:46.603Z,1012.48
2016-05-26T02:37:43.527Z,1012.49
2016-05-26T02:38:43.484Z,1012.5
2016-05-26T02:39:43.439Z,1012.49
2016-05-26T02:40:43.395Z,1012.45
2016-05-26T02:41:43.335Z,1012.47
2016-05-26T02:42:46.290Z,1012.47
2016-05-26T02:43:43.231Z,1012.46
2016-05-26T02:44:43.390Z,1012.55
2016-05-26T02:45:43.220Z,1012.51
2016-05-26T02:46:43.145Z,1012.55
2016-05-26T02:47:43.038Z,1012.59
2016-05-26T02:48:42.994Z,1012.55
2016-05-26T02:49:42.950Z,1012.56
2016-05-26T02:50:42.890Z,1012.54
2016-05-26T02:51:43.049Z,1012.61
2016-05-26T02:52:42.786Z,1012.57
2016-05-26T02:53:45.789Z,1012.62
2016-05-26T02:54:42.761Z,1012.59
2016-05-26T02:55:42.639Z,1012.6
2016-05-26T02:56:42.593Z,1012.63
2016-05-26T02:57:42.753Z,1012.64
2016-05-26T02:58:42.506Z,1012.63
2016-05-26T02:59:45.665Z,1012.63
2016-05-26T03:00:51.418Z,1012.67
2016-05-26T03:01:42.357Z,1012.67
2016-05-26T03:02:42.298Z,1012.69
2016-05-26T03:03:42.254Z,1012.69
2016-05-26T03:04:42.209Z,1012.7
2016-05-26T03:05:42.149Z,1012.72
2016-05-26T03:06:42.105Z,1012.73
2016-05-26T03:07:42.061Z,1012.73
2016-05-26T03:08:42.002Z,1012.73
2016-05-26T03:09:41.957Z,1012.77
2016-05-26T03:10:41.912Z,1012.73
2016-05-26T03:11:41.853Z,1012.74
2016-05-26T03:12:41.809Z,1012.76
2016-05-26T03:13:41.765Z,1012.73
2016-05-26T03:14:41.721Z,1012.72
2016-05-26T03:15:41.661Z,1012.73
2016-05-26T03:16:41.820Z,1012.73
2016-05-26T03:17:44.573Z,1012.76
2016-05-26T03:18:41.512Z,1012.81
2016-05-26T03:19:41.672Z,1012.78
2016-05-26T03:20:41.424Z,1012.78
2016-05-26T03:21:44.364Z,1012.79
2016-05-26T03:22:41.320Z,1012.82
2016-05-26T03:23:41.260Z,1012.79
2016-05-26T03:24:44.232Z,1012.83
2016-05-26T03:25:41.375Z,1012.85
2016-05-26T03:26:41.127Z,1012.81
2016-05-26T03:27:44.083Z,1012.82
2016-05-26T03:28:41.024Z,1012.81
2016-05-26T03:29:41.183Z,1012.82
2016-05-26T03:30:40.919Z,1012.83
2016-05-26T03:31:40.876Z,1012.81
2016-05-26T03:32:40.847Z,1012.8
2016-05-26T03:33:40.975Z,1012.82
2016-05-26T03:34:40.727Z,1012.81
2016-05-26T03:35:40.682Z,1012.83
2016-05-26T03:36:40.624Z,1012.83
2016-05-26T03:37:40.579Z,1012.85
2016-05-26T03:38:40.535Z,1012.85
2016-05-26T03:39:43.490Z,1012.84
2016-05-26T03:40:43.446Z,1012.84
2016-05-26T03:41:40.371Z,1012.87
2016-05-26T03:42:40.342Z,1012.84
2016-05-26T03:43:40.283Z,1012.85
2016-05-26T03:44:43.239Z,1012.86
2016-05-26T03:45:40.178Z,1012.86
2016-05-26T03:46:40.134Z,1012.87
2016-05-26T03:47:40.090Z,1012.84
2016-05-26T03:48:40.031Z,1012.86
2016-05-26T03:49:39.987Z,1012.82
2016-05-26T03:50:39.958Z,1012.86
2016-05-26T03:51:42.898Z,1012.88
2016-05-26T03:52:39.838Z,1012.9
2016-05-26T03:53:39.794Z,1012.86
2016-05-26T03:54:39.734Z,1012.83
2016-05-26T03:55:39.691Z,1012.84
2016-05-26T03:56:39.646Z,1012.82
2016-05-26T03:57:42.586Z,1012.82
2016-05-26T03:58:42.557Z,1012.83
2016-05-26T03:59:39.497Z,1012.86
2016-05-26T04:00:39.438Z,1012.89
2016-05-26T04:01:39.394Z,1012.82
2016-05-26T04:02:39.771Z,1012.84
2016-05-26T04:03:42.305Z,1012.85
2016-05-26T04:04:39.261Z,1012.87
2016-05-26T04:05:39.202Z,1012.83
2016-05-26T04:06:39.157Z,1012.87
2016-05-26T04:07:42.113Z,1012.87
2016-05-26T04:08:42.069Z,1012.86
2016-05-26T04:09:39.009Z,1012.88
2016-05-26T04:10:38.949Z,1012.87
2016-05-26T04:11:38.904Z,1012.87
2016-05-26T04:12:41.861Z,1012.88
2016-05-26T04:13:38.801Z,1012.84
2016-05-26T04:14:38.757Z,1012.84
2016-05-26T04:15:38.712Z,1012.87
2016-05-26T04:16:38.668Z,1012.83
2016-05-26T04:17:38.608Z,1012.86
2016-05-26T04:18:38.753Z,1012.85
2016-05-26T04:19:41.521Z,1012.86
2016-05-26T04:20:41.475Z,1012.91
2016-05-26T04:21:38.416Z,1012.87
2016-05-26T04:22:38.356Z,1012.87
2016-05-26T04:23:38.312Z,1012.83
2016-05-26T04:24:38.269Z,1012.88
2016-05-26T04:25:38.224Z,1012.88
2016-05-26T04:26:38.164Z,1012.91
2016-05-26T04:27:41.198Z,1012.9
2016-05-26T04:28:38.060Z,1012.94
2016-05-26T04:29:38.016Z,1012.89
2016-05-26T04:30:38.035Z,1012.92
2016-05-26T04:31:37.912Z,1012.93
2016-05-26T04:32:38.258Z,1012.93
2016-05-26T04:33:37.824Z,1012.93
2016-05-26T04:34:37.779Z,1012.89
2016-05-26T04:35:37.719Z,1012.89
2016-05-26T04:36:37.675Z,1012.9
2016-05-26T04:37:40.632Z,1012.92
2016-05-26T04:38:37.572Z,1012.9
2016-05-26T04:39:37.527Z,1012.93
2016-05-26T04:40:37.483Z,1012.91
2016-05-26T04:41:37.423Z,1012.91
2016-05-26T04:42:37.379Z,1012.91
2016-05-26T04:43:37.335Z,1012.9
2016-05-26T04:44:37.275Z,1012.9
2016-05-26T04:45:37.231Z,1012.87
2016-05-26T04:46:37.187Z,1012.89
2016-05-26T04:47:40.783Z,1012.91
2016-05-26T04:48:37.083Z,1012.89
2016-05-26T04:49:37.039Z,1012.89
2016-05-26T04:50:36.978Z,1012.89
2016-05-26T04:51:36.934Z,1012.95
2016-05-26T04:52:36.890Z,1012.95
2016-05-26T04:53:39.847Z,1012.95
2016-05-26T04:54:36.787Z,1012.94
2016-05-26T04:55:36.741Z,1012.95
2016-05-26T04:56:36.886Z,1012.93
2016-05-26T04:57:36.842Z,1012.96
2016-05-26T04:58:36.594Z,1012.94
2016-05-26T04:59:36.738Z,1012.99
2016-05-26T05:00:36.490Z,1012.95
2016-05-26T05:01:36.430Z,1012.96
2016-05-26T05:02:36.605Z,1012.95
2016-05-26T05:03:36.341Z,1012.95
2016-05-26T05:04:36.297Z,1012.91
2016-05-26T05:05:39.253Z,1012.91
2016-05-26T05:06:36.193Z,1012.94
2016-05-26T05:07:36.150Z,1012.93
2016-05-26T05:08:36.105Z,1012.91
2016-05-26T05:09:36.060Z,1012.92
2016-05-26T05:10:36.001Z,1012.91
2016-05-26T05:11:38.957Z,1012.94
2016-05-26T05:12:35.913Z,1012.93
2016-05-26T05:13:35.854Z,1012.97
2016-05-26T05:14:35.809Z,1012.97
2016-05-26T05:15:35.749Z,1013
2016-05-26T05:16:35.705Z,1012.99
2016-05-26T05:17:35.661Z,1012.99
2016-05-26T05:18:38.616Z,1013
2016-05-26T05:19:35.556Z,1013
2016-05-26T05:20:35.700Z,1013.01
2016-05-26T05:21:35.453Z,1013.04
2016-05-26T05:22:38.424Z,1013.01
2016-05-26T05:23:35.365Z,1013.09
2016-05-26T05:24:35.305Z,1013.07
2016-05-26T05:25:35.260Z,1013.06
2016-05-26T05:26:35.216Z,1013.08
2016-05-26T05:27:38.172Z,1013.11
2016-05-26T05:28:38.128Z,1013.11
2016-05-26T05:29:38.084Z,1013.12
2016-05-26T05:30:35.024Z,1013.11
2016-05-26T05:31:34.964Z,1013.13
2016-05-26T05:32:34.920Z,1013.13
2016-05-26T05:33:35.329Z,1013.14
2016-05-26T05:34:34.816Z,1013.14
2016-05-26T05:35:37.788Z,1013.1
2016-05-26T05:36:34.727Z,1013.13
2016-05-26T05:37:34.668Z,1013.13
2016-05-26T05:38:34.623Z,1013.13
2016-05-26T05:39:34.579Z,1013.13
2016-05-26T05:40:37.535Z,1013.17
2016-05-26T05:41:37.491Z,1013.17
2016-05-26T05:42:34.431Z,1013.18
2016-05-26T05:43:34.387Z,1013.21
2016-05-26T05:44:34.326Z,1013.23
2016-05-26T05:45:34.282Z,1013.27
2016-05-26T05:46:37.254Z,1013.27
2016-05-26T05:47:34.242Z,1013.29
2016-05-26T05:48:34.135Z,1013.23
2016-05-26T05:49:34.090Z,1013.2
2016-05-26T05:50:34.046Z,1013.26
2016-05-26T05:51:37.018Z,1013.23
2016-05-26T05:52:36.942Z,1013.23
2016-05-26T05:53:34.147Z,1013.2
2016-05-26T05:54:33.838Z,1013.22
2016-05-26T05:55:33.794Z,1013.24
2016-05-26T05:56:33.734Z,1013.24
2016-05-26T05:57:33.689Z,1013.25
2016-05-26T05:58:36.661Z,1013.23
2016-05-26T05:59:33.602Z,1013.26
2016-05-26T06:00:33.541Z,1013.29
2016-05-26T06:01:33.701Z,1013.3
2016-05-26T06:02:33.453Z,1013.25
2016-05-26T06:03:36.410Z,1013.31
2016-05-26T06:04:33.350Z,1013.28
2016-05-26T06:05:33.305Z,1013.26
2016-05-26T06:06:33.261Z,1013.21
2016-05-26T06:07:36.232Z,1013.23
2016-05-26T06:08:33.157Z,1013.25
2016-05-26T06:09:33.097Z,1013.25
2016-05-26T06:10:33.054Z,1013.28
2016-05-26T06:11:36.024Z,1013.29
2016-05-26T06:12:35.965Z,1013.3
2016-05-26T06:13:32.921Z,1013.3
2016-05-26T06:14:32.860Z,1013.35
2016-05-26T06:15:32.817Z,1013.32
2016-05-26T06:16:32.772Z,1013.35
2016-05-26T06:17:35.728Z,1013.35
2016-05-26T06:18:32.669Z,1013.4
2016-05-26T06:19:32.828Z,1013.4
2016-05-26T06:20:32.581Z,1013.38
2016-05-26T06:21:32.520Z,1013.4
2016-05-26T06:22:35.476Z,1013.39
2016-05-26T06:23:35.432Z,1013.39
2016-05-26T06:24:35.387Z,1013.4
2016-05-26T06:25:32.328Z,1013.45
2016-05-26T06:26:32.284Z,1013.44
2016-05-26T06:27:32.239Z,1013.47
2016-05-26T06:28:32.180Z,1013.47
2016-05-26T06:29:35.136Z,1013.51
2016-05-26T06:30:32.294Z,1013.49
2016-05-26T06:31:32.047Z,1013.49
2016-05-26T06:32:31.988Z,1013.53
2016-05-26T06:33:32.146Z,1013.53
2016-05-26T06:34:34.899Z,1013.52
2016-05-26T06:35:31.854Z,1013.53
2016-05-26T06:36:34.810Z,1013.53
2016-05-26T06:37:34.752Z,1013.54
2016-05-26T06:38:31.691Z,1013.53
2016-05-26T06:39:31.663Z,1013.56
2016-05-26T06:40:31.602Z,1013.55
2016-05-26T06:41:34.558Z,1013.55
2016-05-26T06:42:31.515Z,1013.57
2016-05-26T06:43:34.471Z,1013.57
2016-05-26T06:44:31.613Z,1013.63
2016-05-26T06:45:31.366Z,1013.63
2016-05-26T06:46:31.322Z,1013.63
2016-05-26T06:47:31.262Z,1013.64
2016-05-26T06:48:31.218Z,1013.61
2016-05-26T06:49:31.158Z,1013.62
2016-05-26T06:50:31.317Z,1013.61
2016-05-26T06:51:31.070Z,1013.59
2016-05-26T06:52:31.026Z,1013.65
2016-05-26T06:53:30.965Z,1013.63
2016-05-26T06:54:33.936Z,1013.6
2016-05-26T06:55:33.878Z,1013.63
2016-05-26T06:56:30.833Z,1013.65
2016-05-26T06:57:30.789Z,1013.6
2016-05-26T06:58:30.933Z,1013.61
2016-05-26T06:59:30.685Z,1013.62
2016-05-26T07:00:30.641Z,1013.6
2016-05-26T07:01:30.597Z,1013.61
2016-05-26T07:02:33.553Z,1013.61
2016-05-26T07:03:30.508Z,1013.61
2016-05-26T07:04:30.449Z,1013.6
2016-05-26T07:05:30.405Z,1013.64
2016-05-26T07:06:30.344Z,1013.63
2016-05-26T07:07:30.300Z,1013.61
2016-05-26T07:08:30.255Z,1013.61
2016-05-26T07:09:30.212Z,1013.63
2016-05-26T07:10:30.152Z,1013.61
2016-05-26T07:11:30.123Z,1013.63
2016-05-26T07:12:30.063Z,1013.59
2016-05-26T07:13:30.019Z,1013.55
2016-05-26T07:14:29.960Z,1013.58
2016-05-26T07:15:29.915Z,1013.57
2016-05-26T07:16:32.871Z,1013.6
2016-05-26T07:17:29.826Z,1013.54
2016-05-26T07:18:29.768Z,1013.59
2016-05-26T07:19:29.724Z,1013.6
2016-05-26T07:20:29.679Z,1013.56
2016-05-26T07:21:29.635Z,1013.61
2016-05-26T07:22:29.793Z,1013.57
2016-05-26T07:23:29.546Z,1013.55
2016-05-26T07:24:38.549Z,1013.59
2016-05-26T07:25:29.442Z,1013.58
2016-05-26T07:26:29.429Z,1013.6
2016-05-26T07:27:29.354Z,1013.56
2016-05-26T07:28:29.294Z,1013.54
2016-05-26T07:29:29.266Z,1013.57
2016-05-26T07:30:32.221Z,1013.57
2016-05-26T07:31:29.161Z,1013.58
2016-05-26T07:32:29.117Z,1013.57
2016-05-26T07:33:29.058Z,1013.58
2016-05-26T07:34:29.013Z,1013.59
2016-05-26T07:35:28.969Z,1013.56
2016-05-26T07:36:28.909Z,1013.5
2016-05-26T07:37:31.895Z,1013.49
2016-05-26T07:38:31.876Z,1013.49
2016-05-26T07:39:31.825Z,1013.46
2016-05-26T07:40:28.806Z,1013.48
2016-05-26T07:41:28.787Z,1013.5
2016-05-26T07:42:28.759Z,1013.48
2016-05-26T07:43:28.927Z,1013.5
2016-05-26T07:44:28.688Z,1013.45
2016-05-26T07:45:31.871Z,1013.47
2016-05-26T07:46:31.617Z,1013.45
2016-05-26T07:47:28.579Z,1013.4
2016-05-26T07:48:28.522Z,1013.41
2016-05-26T07:49:31.498Z,1013.42
2016-05-26T07:50:28.441Z,1013.41
2016-05-26T07:51:28.400Z,1013.39
2016-05-26T07:52:28.343Z,1013.38
2016-05-26T07:53:31.315Z,1013.4
2016-05-26T07:54:28.256Z,1013.38
2016-05-26T07:55:28.214Z,1013.35
2016-05-26T07:56:28.171Z,1013.39
2016-05-26T07:57:28.112Z,1013.38
2016-05-26T07:58:28.067Z,1013.41
2016-05-26T07:59:28.024Z,1013.39
2016-05-26T08:00:27.980Z,1013.41
2016-05-26T08:01:27.935Z,1013.43
2016-05-26T08:02:27.892Z,1013.42
2016-05-26T08:03:28.301Z,1013.43
2016-05-26T08:04:30.788Z,1013.4
2016-05-26T08:05:27.744Z,1013.42
2016-05-26T08:06:27.700Z,1013.39
2016-05-26T08:07:27.718Z,1013.39
2016-05-26T08:08:27.610Z,1013.39
2016-05-26T08:09:27.568Z,1013.38
2016-05-26T08:10:30.524Z,1013.39
2016-05-26T08:11:27.666Z,1013.38
2016-05-26T08:12:27.419Z,1013.38
2016-05-26T08:13:30.374Z,1013.33
2016-05-26T08:14:30.549Z,1013.33
2016-05-26T08:15:30.287Z,1013.28
2016-05-26T08:16:27.462Z,1013.31
2016-05-26T08:17:27.182Z,1013.28
2016-05-26T08:18:27.153Z,1013.24
2016-05-26T08:19:27.095Z,1013.26
2016-05-26T08:20:30.065Z,1013.27
2016-05-26T08:21:30.021Z,1013.27
2016-05-26T08:22:29.961Z,1013.24
2016-05-26T08:23:29.917Z,1013.25
2016-05-26T08:24:29.873Z,1013.24
2016-05-26T08:25:27.016Z,1013.28
2016-05-26T08:26:26.769Z,1013.27
2016-05-26T08:27:26.725Z,1013.24
2016-05-26T08:28:26.883Z,1013.22
2016-05-26T08:29:35.636Z,1013.23
2016-05-26T08:30:26.592Z,1013.19
2016-05-26T08:31:29.547Z,1013.22
2016-05-26T08:32:26.488Z,1013.23
2016-05-26T08:33:26.445Z,1013.26
2016-05-26T08:34:26.399Z,1013.27
2016-05-26T08:35:26.355Z,1013.27
2016-05-26T08:36:35.311Z,1013.26
2016-05-26T08:37:26.268Z,1013.25
2016-05-26T08:38:26.224Z,1013.25
2016-05-26T08:39:26.180Z,1013.21
2016-05-26T08:40:29.134Z,1013.25
2016-05-26T08:41:26.075Z,1013.23
2016-05-26T08:42:26.032Z,1013.21
2016-05-26T08:43:25.987Z,1013.27
2016-05-26T08:44:25.943Z,1013.2
2016-05-26T08:45:25.898Z,1013.2
2016-05-26T08:46:25.854Z,1013.23
2016-05-26T08:47:25.810Z,1013.24
2016-05-26T08:48:25.751Z,1013.25
2016-05-26T08:49:25.706Z,1013.21
2016-05-26T08:50:25.662Z,1013.22
2016-05-26T08:51:25.618Z,1013.26
2016-05-26T08:52:25.573Z,1013.24
2016-05-26T08:53:25.529Z,1013.26
2016-05-26T08:54:28.500Z,1013.24
2016-05-26T08:55:28.644Z,1013.23
2016-05-26T08:56:25.397Z,1013.31
2016-05-26T08:57:28.368Z,1013.3
2016-05-26T08:58:25.292Z,1013.3
2016-05-26T08:59:25.248Z,1013.29
2016-05-26T09:00:25.205Z,1013.27
2016-05-26T09:01:25.175Z,1013.24
2016-05-26T09:02:25.116Z,1013.29
2016-05-26T09:03:25.588Z,1013.25
2016-05-26T09:04:25.058Z,1013.29
2016-05-26T09:05:27.999Z,1013.28
2016-05-26T09:06:24.939Z,1013.26
2016-05-26T09:07:24.894Z,1013.27
2016-05-26T09:08:27.866Z,1013.24
2016-05-26T09:09:24.807Z,1013.26
2016-05-26T09:10:24.746Z,1013.23
2016-05-26T09:11:24.718Z,1013.24
2016-05-26T09:12:24.658Z,1013.22
2016-05-26T09:13:24.614Z,1013.21
2016-05-26T09:14:27.585Z,1013.21
2016-05-26T09:15:24.526Z,1013.24
2016-05-26T09:16:24.482Z,1013.25
2016-05-26T09:17:27.453Z,1013.22
2016-05-26T09:18:24.393Z,1013.21
2016-05-26T09:19:27.349Z,1013.2
2016-05-26T09:20:24.508Z,1013.17
2016-05-26T09:21:27.464Z,1013.18
2016-05-26T09:22:24.217Z,1013.19
2016-05-26T09:23:24.157Z,1013.27
2016-05-26T09:24:24.113Z,1013.24
2016-05-26T09:25:24.067Z,1013.2
2016-05-26T09:26:24.025Z,1013.21
2016-05-26T09:27:23.980Z,1013.21
2016-05-26T09:28:23.936Z,1013.2
2016-05-26T09:29:23.892Z,1013.12
2016-05-26T09:30:23.848Z,1013.13
2016-05-26T09:31:26.819Z,1013.12
2016-05-26T09:32:23.759Z,1013.11
2016-05-26T09:33:23.715Z,1013.13
2016-05-26T09:34:23.671Z,1013.06
2016-05-26T09:35:23.627Z,1013.06
2016-05-26T09:36:23.566Z,1013.06
2016-05-26T09:37:23.725Z,1013.04
2016-05-26T09:38:23.494Z,1013.01
2016-05-26T09:39:23.435Z,1013.06
2016-05-26T09:40:23.390Z,1013.04
2016-05-26T09:41:23.361Z,1013.02
2016-05-26T09:42:32.318Z,1013.03
2016-05-26T09:43:23.288Z,1013
2016-05-26T09:44:23.213Z,1013
2016-05-26T09:45:23.185Z,1012.99
2016-05-26T09:46:23.329Z,1013.01
2016-05-26T09:47:23.081Z,1012.98
2016-05-26T09:48:23.037Z,1013
2016-05-26T09:49:22.993Z,1012.95
2016-05-26T09:50:22.948Z,1012.97
2016-05-26T09:51:22.888Z,1012.98
2016-05-26T09:52:22.859Z,1013
2016-05-26T09:53:22.801Z,1013
2016-05-26T09:54:22.975Z,1012.97
2016-05-26T09:55:25.728Z,1012.98
2016-05-26T09:56:25.683Z,1013
2016-05-26T09:57:22.639Z,1012.99
2016-05-26T09:58:25.595Z,1013.03
2016-05-26T09:59:25.551Z,1013.02
2016-05-26T10:00:25.694Z,1013.02
2016-05-26T10:01:22.447Z,1013.02
2016-05-26T10:02:22.402Z,1013
2016-05-26T10:03:22.358Z,1012.98
2016-05-26T10:04:22.314Z,1012.96
2016-05-26T10:05:25.489Z,1012.96
2016-05-26T10:06:22.225Z,1012.93
2016-05-26T10:07:22.181Z,1012.96
2016-05-26T10:08:22.138Z,1012.95
2016-05-26T10:09:22.093Z,1012.96
2016-05-26T10:10:22.049Z,1012.97
2016-05-26T10:11:22.208Z,1012.97
2016-05-26T10:12:24.961Z,1012.95
2016-05-26T10:13:21.916Z,1012.97
2016-05-26T10:14:21.872Z,1012.96
2016-05-26T10:15:21.828Z,1012.91
2016-05-26T10:16:21.784Z,1012.95
2016-05-26T10:17:21.739Z,1012.96
2016-05-26T10:18:24.696Z,1012.94
2016-05-26T10:19:21.651Z,1013
2016-05-26T10:20:21.607Z,1012.96
2016-05-26T10:21:21.562Z,1012.97
2016-05-26T10:22:21.518Z,1012.97
2016-05-26T10:23:21.474Z,1012.92
2016-05-26T10:24:21.431Z,1012.97
2016-05-26T10:25:21.386Z,1012.96
2016-05-26T10:26:21.342Z,1012.93
2016-05-26T10:27:21.298Z,1012.94
2016-05-26T10:28:21.238Z,1012.97
2016-05-26T10:29:21.209Z,1012.98
2016-05-26T10:30:21.165Z,1012.97
2016-05-26T10:31:21.105Z,1012.94
2016-05-26T10:32:21.077Z,1012.98
2016-05-26T10:33:21.033Z,1012.96
2016-05-26T10:34:20.988Z,1013
2016-05-26T10:35:23.960Z,1013
2016-05-26T10:36:20.899Z,1012.98
2016-05-26T10:37:23.856Z,1012.96
2016-05-26T10:38:23.811Z,1013
2016-05-26T10:39:20.767Z,1012.99
2016-05-26T10:40:23.724Z,1012.99
2016-05-26T10:41:20.679Z,1012.93
2016-05-26T10:42:23.854Z,1012.96
2016-05-26T10:43:20.590Z,1012.96
2016-05-26T10:44:20.546Z,1012.99
2016-05-26T10:45:20.503Z,1013.01
2016-05-26T10:46:20.458Z,1012.97
2016-05-26T10:47:20.414Z,1012.96
2016-05-26T10:48:20.370Z,1012.97
2016-05-26T10:49:20.326Z,1012.94
2016-05-26T10:50:20.281Z,1012.97
2016-05-26T10:51:23.238Z,1012.98
2016-05-26T10:52:20.193Z,1012.99
2016-05-26T10:53:20.149Z,1012.98
2016-05-26T10:54:23.307Z,1012.94
2016-05-26T10:55:20.076Z,1013.05
2016-05-26T10:56:20.047Z,1013.02
2016-05-26T10:57:19.972Z,1013.02
2016-05-26T10:58:19.928Z,1013
2016-05-26T10:59:19.884Z,1012.99
2016-05-26T11:00:19.839Z,1012.96
2016-05-26T11:01:19.795Z,1012.93
2016-05-26T11:02:19.751Z,1012.95
2016-05-26T11:03:19.831Z,1012.93
2016-05-26T11:04:19.663Z,1012.9
2016-05-26T11:05:19.619Z,1012.9
2016-05-26T11:06:19.575Z,1012.91
2016-05-26T11:07:19.530Z,1012.88
2016-05-26T11:08:19.486Z,1012.85
2016-05-26T11:09:19.442Z,1012.89
2016-05-26T11:10:19.397Z,1012.86
2016-05-26T11:11:19.353Z,1012.89
2016-05-26T11:12:19.310Z,1012.86
2016-05-26T11:13:19.265Z,1012.91
2016-05-26T11:14:19.221Z,1012.89
2016-05-26T11:15:19.176Z,1012.86
2016-05-26T11:16:19.132Z,1012.83
2016-05-26T11:17:19.104Z,1012.86
2016-05-26T11:18:19.419Z,1012.89
2016-05-26T11:19:22.016Z,1012.88
2016-05-26T11:20:21.971Z,1012.88
2016-05-26T11:21:18.912Z,1012.89
2016-05-26T11:22:21.883Z,1012.88
2016-05-26T11:23:21.854Z,1012.9
2016-05-26T11:24:18.795Z,1012.91
2016-05-26T11:25:18.751Z,1012.89
2016-05-26T11:26:18.706Z,1012.86
2016-05-26T11:27:21.678Z,1012.93
2016-05-26T11:28:18.617Z,1012.93
2016-05-26T11:29:21.574Z,1012.93
2016-05-26T11:30:18.936Z,1012.9
2016-05-26T11:31:21.486Z,1012.88
2016-05-26T11:32:21.441Z,1012.91
2016-05-26T11:33:21.412Z,1012.89
2016-05-26T11:34:21.369Z,1012.87
2016-05-26T11:35:21.325Z,1012.91
2016-05-26T11:36:18.278Z,1012.86
2016-05-26T11:37:18.233Z,1012.88
2016-05-26T11:38:18.189Z,1012.85
2016-05-26T11:39:18.130Z,1012.81
2016-05-26T11:40:18.100Z,1012.79
2016-05-26T11:41:18.260Z,1012.77
2016-05-26T11:42:18.013Z,1012.75
2016-05-26T11:43:17.969Z,1012.74
2016-05-26T11:44:17.924Z,1012.8
2016-05-26T11:45:17.880Z,1012.82
2016-05-26T11:46:17.835Z,1012.83
2016-05-26T11:47:17.994Z,1012.85
2016-05-26T11:48:17.747Z,1012.85
2016-05-26T11:49:17.703Z,1012.83
2016-05-26T11:50:17.659Z,1012.85
2016-05-26T11:51:17.615Z,1012.77
2016-05-26T11:52:17.571Z,1012.79
2016-05-26T11:53:20.545Z,1012.77
2016-05-26T11:54:17.482Z,1012.85
2016-05-26T11:55:20.440Z,1012.77
2016-05-26T11:56:20.413Z,1012.76
2016-05-26T11:57:17.366Z,1012.82
2016-05-26T11:58:17.524Z,1012.78
2016-05-26T11:59:20.280Z,1012.83
2016-05-26T12:00:17.233Z,1012.83
2016-05-26T12:01:17.173Z,1012.82
2016-05-26T12:02:17.144Z,1012.81
2016-05-26T12:03:20.115Z,1012.8
2016-05-26T12:04:20.056Z,1012.76
2016-05-26T12:05:20.012Z,1012.75
2016-05-26T12:06:19.983Z,1012.75
2016-05-26T12:07:19.939Z,1012.83
2016-05-26T12:08:16.879Z,1012.9
2016-05-26T12:09:16.835Z,1012.77